Time,TemperatureF,DewpointF,PressureIn,WindDirection,WindDirectionDegrees,WindSpeedMPH,WindSpeedGustMPH,Humidity,HourlyPrecipIn,Conditions,Clouds,dailyrainin,SoftwareType,DateUTC
2013-06-21 00:00:00,67.0,63.6,29.67,NE,54,0.0,0.0,89,0.00,,,0.00,VWS V14.01,2013-06-21 05:00:00,
2013-06-21 00:01:00,67.0,63.6,29.67,ENE,60,0.0,0.0,89,0.00,,,0.00,VWS V14.01,2013-06-21 05:01:00,
2013-06-21 00:06:00,66.8,63.4,29.67,ENE,63,0.0,0.0,89,0.00,,,0.00,VWS V14.01,2013-06-21 05:06:00,
2013-06-21 00:11:00,66.7,63.6,29.67,ENE,63,0.0,0.0,90,0.00,,,0.00,VWS V14.01,2013-06-21 05:11:00,
2013-06-21 00:15:00,66.5,63.4,29.67,ENE,71,0.0,0.0,90,0.00,,,0.00,VWS V14.01,2013-06-21 05:15:00,
2013-06-21 00:16:00,66.5,63.4,29.67,ENE,63,0.0,0.0,90,0.00,,,0.00,VWS V14.01,2013-06-21 05:16:00,
2013-06-21 00:21:00,66.4,63.3,29.67,NE,54,0.0,0.0,90,0.00,,,0.00,VWS V14.01,2013-06-21 05:21:00,
2013-06-21 00:26:00,66.2,63.1,29.67,NE,54,0.0,0.0,90,0.00,,,0.00,VWS V14.01,2013-06-21 05:26:00,
2013-06-21 00:30:00,66.1,63.0,29.68,NE,54,0.0,0.0,90,0.00,,,0.00,VWS V14.01,2013-06-21 05:30:00,
2013-06-21 00:31:00,66.1,63.3,29.67,NE,54,0.0,0.0,91,0.00,,,0.00,VWS V14.01,2013-06-21 05:31:00,
2013-06-21 00:36:00,66.1,63.3,29.68,NE,54,0.0,0.0,91,0.00,,,0.00,VWS V14.01,2013-06-21 05:36:00,
2013-06-21 00:41:00,65.9,63.1,29.68,NE,54,0.0,0.0,91,0.00,,,0.00,VWS V14.01,2013-06-21 05:41:00,
2013-06-21 00:45:00,65.8,63.0,29.68,NE,54,0.0,0.0,91,0.00,,,0.00,VWS V14.01,2013-06-21 05:45:00,
2013-06-21 00:46:00,65.8,63.0,29.68,NE,54,0.0,0.0,91,0.00,,,0.00,VWS V14.01,2013-06-21 05:46:00,
2013-06-21 00:51:00,65.7,62.9,29.68,NNE,14,0.0,0.0,91,0.00,,,0.00,VWS V14.01,2013-06-21 05:51:00,
2013-06-21 00:56:00,65.6,62.8,29.68,NNE,14,0.0,0.0,91,0.00,,,0.00,VWS V14.01,2013-06-21 05:56:00,
2013-06-21 01:00:00,65.5,63.0,29.69,NNE,14,0.0,0.0,92,0.00,,,0.00,VWS V14.01,2013-06-21 06:00:00,
2013-06-21 01:01:00,65.5,63.0,29.69,NNE,14,0.0,0.0,92,0.00,,,0.00,VWS V14.01,2013-06-21 06:01:00,
2013-06-21 01:06:00,65.3,62.5,29.69,NNE,14,0.0,0.0,91,0.00,,,0.00,VWS V14.01,2013-06-21 06:06:00,
2013-06-21 01:11:00,65.4,62.9,29.68,North,5,0.0,0.0,92,0.00,,,0.00,VWS V14.01,2013-06-21 06:11:00,
2013-06-21 01:15:00,65.3,62.8,29.69,NW,315,0.0,0.0,92,0.00,,,0.00,VWS V14.01,2013-06-21 06:15:00,
2013-06-21 01:16:00,65.3,62.8,29.69,NW,315,0.0,0.0,92,0.00,,,0.00,VWS V14.01,2013-06-21 06:16:00,
2013-06-21 01:21:00,65.1,62.6,29.69,NW,315,0.0,0.0,92,0.00,,,0.00,VWS V14.01,2013-06-21 06:21:00,
2013-06-21 01:26:00,65.0,62.5,29.69,NW,315,0.0,0.0,92,0.00,,,0.00,VWS V14.01,2013-06-21 06:26:00,
2013-06-21 01:30:00,64.9,62.7,29.69,NW,315,0.0,0.0,93,0.00,,,0.00,VWS V14.01,2013-06-21 06:30:00,
2013-06-21 01:31:00,64.9,62.7,29.69,NW,315,0.0,0.0,93,0.00,,,0.00,VWS V14.01,2013-06-21 06:31:00,
2013-06-21 01:36:00,64.8,62.6,29.69,NW,315,0.0,0.0,93,0.00,,,0.00,VWS V14.01,2013-06-21 06:36:00,
2013-06-21 01:41:00,64.7,62.5,29.69,NW,315,0.0,0.0,93,0.00,,,0.00,VWS V14.01,2013-06-21 06:41:00,
2013-06-21 01:45:00,64.6,62.4,29.69,NW,312,0.0,0.0,93,0.00,,,0.00,VWS V14.01,2013-06-21 06:45:00,
2013-06-21 01:46:00,64.6,62.4,29.69,NW,312,0.0,0.0,93,0.00,,,0.00,VWS V14.01,2013-06-21 06:46:00,
2013-06-21 01:51:00,64.4,62.2,29.70,NW,312,0.0,0.0,93,0.00,,,0.00,VWS V14.01,2013-06-21 06:51:00,
2013-06-21 01:56:00,64.1,62.0,29.69,NW,312,0.0,0.0,93,0.00,,,0.00,VWS V14.01,2013-06-21 06:56:00,
2013-06-21 02:00:00,64.0,61.8,29.69,NW,312,0.0,0.0,93,0.00,,,0.00,VWS V14.01,2013-06-21 07:00:00,
2013-06-21 02:01:00,63.9,61.8,29.69,NW,312,0.0,0.0,93,0.00,,,0.00,VWS V14.01,2013-06-21 07:01:00,
2013-06-21 02:06:00,63.8,61.7,29.70,NW,312,0.0,0.0,93,0.00,,,0.00,VWS V14.01,2013-06-21 07:06:00,
2013-06-21 02:11:00,63.9,62.0,29.70,NW,312,0.0,0.0,94,0.00,,,0.00,VWS V14.01,2013-06-21 07:11:00,
2013-06-21 02:15:00,63.9,62.0,29.70,NW,312,0.0,0.0,94,0.00,,,0.00,VWS V14.01,2013-06-21 07:15:00,
2013-06-21 02:16:00,63.9,62.0,29.70,NW,312,0.0,0.0,94,0.00,,,0.00,VWS V14.01,2013-06-21 07:16:00,
2013-06-21 02:21:00,63.7,61.8,29.70,NW,312,0.0,0.0,94,0.00,,,0.00,VWS V14.01,2013-06-21 07:21:00,
2013-06-21 02:26:00,63.8,62.0,29.70,NW,312,0.0,0.0,94,0.00,,,0.00,VWS V14.01,2013-06-21 07:26:00,
2013-06-21 02:30:00,63.9,62.3,29.70,NW,312,0.0,0.0,95,0.00,,,0.00,VWS V14.01,2013-06-21 07:30:00,
2013-06-21 02:31:00,63.9,62.3,29.70,NW,312,0.0,0.0,95,0.00,,,0.00,VWS V14.01,2013-06-21 07:31:00,
2013-06-21 02:36:00,63.9,62.0,29.69,NW,312,0.0,0.0,94,0.00,,,0.00,VWS V14.01,2013-06-21 07:36:00,
2013-06-21 02:41:00,63.7,61.8,29.69,NW,312,0.0,0.0,94,0.00,,,0.00,VWS V14.01,2013-06-21 07:41:00,
2013-06-21 02:45:00,63.5,61.7,29.69,NW,312,0.0,0.0,94,0.00,,,0.00,VWS V14.01,2013-06-21 07:45:00,
2013-06-21 02:46:00,63.5,61.7,29.69,NW,312,0.0,0.0,94,0.00,,,0.00,VWS V14.01,2013-06-21 07:46:00,
2013-06-21 02:51:00,63.5,62.0,29.69,NW,312,0.0,0.0,95,0.00,,,0.00,VWS V14.01,2013-06-21 07:51:00,
2013-06-21 02:56:00,63.4,61.9,29.69,NW,312,0.0,0.0,95,0.00,,,0.00,VWS V14.01,2013-06-21 07:56:00,
2013-06-21 03:00:00,63.2,61.7,29.69,NW,312,0.0,0.0,95,0.00,,,0.00,VWS V14.01,2013-06-21 08:00:00,
2013-06-21 03:01:00,63.2,61.7,29.69,NW,312,0.0,0.0,95,0.00,,,0.00,VWS V14.01,2013-06-21 08:01:00,
2013-06-21 03:06:00,63.0,61.2,29.69,NW,312,0.0,0.0,94,0.00,,,0.00,VWS V14.01,2013-06-21 08:06:00,
2013-06-21 03:11:00,62.9,61.4,29.69,NW,312,0.0,0.0,95,0.00,,,0.00,VWS V14.01,2013-06-21 08:11:00,
2013-06-21 03:15:00,62.8,61.3,29.69,NW,312,0.0,0.0,95,0.00,,,0.00,VWS V14.01,2013-06-21 08:15:00,
2013-06-21 03:16:00,62.8,61.3,29.69,NW,312,0.0,0.0,95,0.00,,,0.00,VWS V14.01,2013-06-21 08:16:00,
2013-06-21 03:21:00,62.9,61.4,29.69,NW,312,0.0,0.0,95,0.00,,,0.00,VWS V14.01,2013-06-21 08:21:00,
2013-06-21 03:26:00,63.0,61.5,29.68,NW,312,0.0,0.0,95,0.00,,,0.00,VWS V14.01,2013-06-21 08:26:00,
2013-06-21 03:30:00,63.0,61.5,29.69,NW,312,0.0,0.0,95,0.00,,,0.00,VWS V14.01,2013-06-21 08:30:00,
2013-06-21 03:31:00,63.0,61.5,29.69,NW,312,0.0,0.0,95,0.00,,,0.00,VWS V14.01,2013-06-21 08:31:00,
2013-06-21 03:36:00,62.7,61.2,29.68,NW,311,0.0,0.0,95,0.00,,,0.00,VWS V14.01,2013-06-21 08:36:00,
2013-06-21 03:41:00,62.6,61.1,29.69,NW,311,0.0,0.0,95,0.00,,,0.00,VWS V14.01,2013-06-21 08:41:00,
2013-06-21 03:45:00,62.5,61.0,29.69,NW,311,0.0,0.0,95,0.00,,,0.00,VWS V14.01,2013-06-21 08:45:00,
2013-06-21 03:46:00,62.5,61.0,29.69,NW,311,0.0,0.0,95,0.00,,,0.00,VWS V14.01,2013-06-21 08:46:00,
2013-06-21 03:51:00,62.5,61.0,29.69,NW,311,0.0,0.0,95,0.00,,,0.00,VWS V14.01,2013-06-21 08:51:00,
2013-06-21 03:56:00,62.4,60.9,29.70,NW,311,0.0,0.0,95,0.00,,,0.00,VWS V14.01,2013-06-21 08:56:00,
2013-06-21 04:00:00,62.4,60.9,29.70,NW,311,0.0,0.0,95,0.00,,,0.00,VWS V14.01,2013-06-21 09:00:00,
2013-06-21 04:01:00,62.4,60.9,29.70,NW,311,0.0,0.0,95,0.00,,,0.00,VWS V14.01,2013-06-21 09:01:00,
2013-06-21 04:06:00,62.3,60.8,29.70,NW,311,0.0,0.0,95,0.00,,,0.00,VWS V14.01,2013-06-21 09:06:00,
2013-06-21 04:11:00,62.1,60.6,29.70,NW,311,0.0,0.0,95,0.00,,,0.00,VWS V14.01,2013-06-21 09:11:00,
2013-06-21 04:15:00,61.9,60.4,29.71,NW,311,0.0,0.0,95,0.00,,,0.00,VWS V14.01,2013-06-21 09:15:00,
2013-06-21 04:16:00,61.9,60.4,29.71,NW,311,0.0,0.0,95,0.00,,,0.00,VWS V14.01,2013-06-21 09:16:00,
2013-06-21 04:21:00,61.9,60.4,29.71,NW,311,0.0,0.0,95,0.00,,,0.00,VWS V14.01,2013-06-21 09:21:00,
2013-06-21 04:26:00,61.8,60.3,29.72,NW,311,0.0,0.0,95,0.00,,,0.00,VWS V14.01,2013-06-21 09:26:00,
2013-06-21 04:30:00,61.6,60.1,29.72,NW,311,0.0,0.0,95,0.00,,,0.00,VWS V14.01,2013-06-21 09:30:00,
2013-06-21 04:31:00,61.5,60.0,29.72,NW,311,0.0,0.0,95,0.00,,,0.00,VWS V14.01,2013-06-21 09:31:00,
2013-06-21 04:36:00,61.3,59.8,29.73,NW,311,0.0,0.0,95,0.00,,,0.00,VWS V14.01,2013-06-21 09:36:00,
2013-06-21 04:41:00,61.4,60.2,29.73,NW,311,0.0,0.0,96,0.00,,,0.00,VWS V14.01,2013-06-21 09:41:00,
2013-06-21 04:45:00,61.3,60.1,29.73,NW,311,0.0,0.0,96,0.00,,,0.00,VWS V14.01,2013-06-21 09:45:00,
2013-06-21 04:46:00,61.3,60.1,29.73,NW,311,0.0,0.0,96,0.00,,,0.00,VWS V14.01,2013-06-21 09:46:00,
2013-06-21 04:51:00,61.1,59.9,29.73,WNW,286,0.0,0.0,96,0.00,,,0.00,VWS V14.01,2013-06-21 09:51:00,
2013-06-21 04:56:00,61.0,59.8,29.73,WNW,286,0.0,0.0,96,0.00,,,0.00,VWS V14.01,2013-06-21 09:56:00,
2013-06-21 05:00:00,60.9,59.7,29.73,WNW,286,0.0,0.0,96,0.00,,,0.00,VWS V14.01,2013-06-21 10:00:00,
2013-06-21 05:01:00,60.9,59.7,29.73,WNW,286,0.0,0.0,96,0.00,,,0.00,VWS V14.01,2013-06-21 10:01:00,
2013-06-21 05:06:00,61.1,59.9,29.73,WNW,286,0.0,0.0,96,0.00,,,0.00,VWS V14.01,2013-06-21 10:06:00,
2013-06-21 05:11:00,60.9,59.7,29.73,WNW,286,0.0,0.0,96,0.00,,,0.00,VWS V14.01,2013-06-21 10:11:00,
2013-06-21 05:15:00,60.5,59.0,29.73,WNW,286,0.0,0.0,95,0.00,,,0.00,VWS V14.01,2013-06-21 10:15:00,
2013-06-21 05:16:00,60.5,59.0,29.72,WNW,286,0.0,0.0,95,0.00,,,0.00,VWS V14.01,2013-06-21 10:16:00,
2013-06-21 05:21:00,60.2,58.7,29.72,WNW,286,0.0,0.0,95,0.00,,,0.00,VWS V14.01,2013-06-21 10:21:00,
2013-06-21 05:26:00,59.8,58.3,29.72,WNW,286,0.0,0.0,95,0.00,,,0.00,VWS V14.01,2013-06-21 10:26:00,
2013-06-21 05:30:00,59.6,58.4,29.72,WNW,286,0.0,0.0,96,0.00,,,0.00,VWS V14.01,2013-06-21 10:30:00,
2013-06-21 05:31:00,59.6,58.4,29.72,WNW,286,0.0,0.0,96,0.00,,,0.00,VWS V14.01,2013-06-21 10:31:00,
2013-06-21 05:36:00,59.4,58.2,29.72,WNW,286,0.0,0.0,96,0.00,,,0.00,VWS V14.01,2013-06-21 10:36:00,
2013-06-21 05:41:00,59.4,58.2,29.73,WNW,286,0.0,0.0,96,0.00,,,0.00,VWS V14.01,2013-06-21 10:41:00,
2013-06-21 05:45:00,59.5,58.3,29.73,WNW,286,0.0,0.0,96,0.00,,,0.00,VWS V14.01,2013-06-21 10:45:00,
2013-06-21 05:46:00,59.5,58.3,29.73,WNW,286,0.0,0.0,96,0.00,,,0.00,VWS V14.01,2013-06-21 10:46:00,
2013-06-21 05:51:00,59.5,58.3,29.72,WNW,286,0.0,0.0,96,0.00,,,0.00,VWS V14.01,2013-06-21 10:51:00,
2013-06-21 05:56:00,59.3,58.1,29.72,WNW,286,0.0,0.0,96,0.00,,,0.00,VWS V14.01,2013-06-21 10:56:00,
2013-06-21 06:00:00,59.0,57.8,29.72,WNW,287,0.0,0.0,96,0.00,,,0.00,VWS V14.01,2013-06-21 11:00:00,
2013-06-21 06:01:00,59.0,57.8,29.72,WNW,287,0.0,0.0,96,0.00,,,0.00,VWS V14.01,2013-06-21 11:01:00,
2013-06-21 06:06:00,58.8,57.6,29.72,WNW,287,0.0,0.0,96,0.00,,,0.00,VWS V14.01,2013-06-21 11:06:00,
2013-06-21 06:10:00,58.7,57.5,29.72,West,272,0.0,0.0,96,0.00,,,0.00,VWS V14.01,2013-06-21 11:10:00,
2013-06-21 06:15:00,58.6,57.4,29.72,West,272,0.0,0.0,96,0.00,,,0.00,VWS V14.01,2013-06-21 11:15:00,
2013-06-21 06:20:00,58.8,57.9,29.72,West,272,0.0,0.0,97,0.00,,,0.00,VWS V14.01,2013-06-21 11:20:00,
2013-06-21 06:25:00,59.0,58.1,29.73,West,272,0.0,0.0,97,0.00,,,0.00,VWS V14.01,2013-06-21 11:25:00,
2013-06-21 06:30:00,59.3,58.4,29.73,West,272,0.0,0.0,97,0.00,,,0.00,VWS V14.01,2013-06-21 11:30:00,
2013-06-21 06:35:00,59.4,58.5,29.73,West,272,0.0,0.0,97,0.00,,,0.00,VWS V14.01,2013-06-21 11:35:00,
2013-06-21 06:40:00,59.5,58.6,29.73,West,272,0.0,0.0,97,0.00,,,0.00,VWS V14.01,2013-06-21 11:40:00,
2013-06-21 06:45:00,59.6,58.7,29.73,West,272,0.0,0.0,97,0.00,,,0.00,VWS V14.01,2013-06-21 11:45:00,
2013-06-21 06:50:00,59.7,58.8,29.73,West,272,0.0,0.0,97,0.00,,,0.00,VWS V14.01,2013-06-21 11:50:00,
2013-06-21 06:55:00,59.9,59.0,29.73,West,273,0.0,0.0,97,0.00,,,0.00,VWS V14.01,2013-06-21 11:55:00,
2013-06-21 07:00:00,59.9,59.0,29.73,West,265,0.0,0.0,97,0.00,,,0.00,VWS V14.01,2013-06-21 12:00:00,
2013-06-21 07:05:00,60.0,59.1,29.73,WNW,293,0.0,0.0,97,0.00,,,0.00,VWS V14.01,2013-06-21 12:05:00,
2013-06-21 07:10:00,60.0,59.1,29.73,WNW,294,0.0,0.0,97,0.00,,,0.00,VWS V14.01,2013-06-21 12:10:00,
2013-06-21 07:15:00,60.1,59.2,29.73,NW,305,0.0,0.0,97,0.00,,,0.00,VWS V14.01,2013-06-21 12:15:00,
2013-06-21 07:20:00,60.2,59.3,29.73,NW,305,0.0,0.0,97,0.00,,,0.00,VWS V14.01,2013-06-21 12:20:00,
2013-06-21 07:25:00,60.2,59.3,29.73,NW,305,0.0,0.0,97,0.00,,,0.00,VWS V14.01,2013-06-21 12:25:00,
2013-06-21 07:30:00,60.1,59.2,29.73,NW,310,0.0,0.0,97,0.00,,,0.00,VWS V14.01,2013-06-21 12:30:00,
2013-06-21 07:35:00,60.0,59.1,29.73,NW,304,0.0,0.0,97,0.00,,,0.00,VWS V14.01,2013-06-21 12:35:00,
2013-06-21 07:40:00,60.0,59.1,29.73,WNW,295,0.0,0.0,97,0.00,,,0.00,VWS V14.01,2013-06-21 12:40:00,
2013-06-21 07:45:00,60.1,59.2,29.73,WNW,295,0.0,0.0,97,0.00,,,0.00,VWS V14.01,2013-06-21 12:45:00,
2013-06-21 07:50:00,60.4,59.5,29.73,WNW,295,0.0,0.0,97,0.00,,,0.00,VWS V14.01,2013-06-21 12:50:00,
2013-06-21 07:55:00,60.7,59.8,29.73,WNW,287,0.0,0.0,97,0.00,,,0.00,VWS V14.01,2013-06-21 12:55:00,
2013-06-21 08:00:00,60.7,59.8,29.73,WNW,288,0.0,0.0,97,0.00,,,0.00,VWS V14.01,2013-06-21 13:00:00,
2013-06-21 08:05:00,60.7,59.8,29.72,WNW,288,0.0,0.0,97,0.00,,,0.00,VWS V14.01,2013-06-21 13:05:00,
2013-06-21 08:10:00,60.7,59.8,29.72,WNW,288,0.0,0.0,97,0.00,,,0.00,VWS V14.01,2013-06-21 13:10:00,
2013-06-21 08:15:00,60.9,60.0,29.72,WNW,288,0.0,0.0,97,0.00,,,0.00,VWS V14.01,2013-06-21 13:15:00,
2013-06-21 08:20:00,61.2,60.5,29.72,WNW,288,0.0,0.0,98,0.00,,,0.00,VWS V14.01,2013-06-21 13:20:00,
2013-06-21 08:25:00,61.6,61.0,29.73,WNW,288,0.0,0.0,98,0.00,,,0.00,VWS V14.01,2013-06-21 13:25:00,
2013-06-21 08:30:00,61.7,60.8,29.73,WNW,288,0.0,0.0,97,0.00,,,0.00,VWS V14.01,2013-06-21 13:30:00,
2013-06-21 08:35:00,61.7,60.8,29.73,NW,305,0.0,0.0,97,0.00,,,0.00,VWS V14.01,2013-06-21 13:35:00,
2013-06-21 08:40:00,61.5,60.6,29.73,NW,310,0.0,0.0,97,0.00,,,0.00,VWS V14.01,2013-06-21 13:40:00,
2013-06-21 08:45:00,61.5,60.6,29.72,WNW,301,0.0,0.0,97,0.00,,,0.00,VWS V14.01,2013-06-21 13:45:00,
2013-06-21 08:50:00,61.8,61.2,29.73,WNW,303,0.0,0.0,98,0.00,,,0.00,VWS V14.01,2013-06-21 13:50:00,
2013-06-21 08:55:00,62.2,61.5,29.74,NW,308,0.0,0.0,98,0.00,,,0.00,VWS V14.01,2013-06-21 13:55:00,
2013-06-21 09:00:00,62.7,62.0,29.73,NW,322,0.0,0.0,98,0.00,,,0.00,VWS V14.01,2013-06-21 14:00:00,
2013-06-21 09:06:00,62.8,62.1,29.73,NNW,327,0.0,0.0,98,0.00,,,0.00,VWS V14.01,2013-06-21 14:06:00,
2013-06-21 09:11:00,63.0,62.3,29.73,NW,321,0.0,0.0,98,0.00,,,0.00,VWS V14.01,2013-06-21 14:11:00,
2013-06-21 09:15:00,63.3,62.6,29.74,NW,309,0.0,0.0,98,0.00,,,0.00,VWS V14.01,2013-06-21 14:15:00,
2013-06-21 09:16:00,63.4,62.7,29.74,WNW,294,0.0,0.0,98,0.00,,,0.00,VWS V14.01,2013-06-21 14:16:00,
2013-06-21 09:21:00,63.5,62.8,29.74,NW,312,0.0,0.0,98,0.00,,,0.00,VWS V14.01,2013-06-21 14:21:00,
2013-06-21 09:26:00,63.8,63.1,29.74,NW,310,0.0,0.0,98,0.00,,,0.00,VWS V14.01,2013-06-21 14:26:00,
2013-06-21 09:30:00,63.8,63.1,29.74,NW,313,0.0,0.0,98,0.00,,,0.00,VWS V14.01,2013-06-21 14:30:00,
2013-06-21 09:31:00,63.9,63.2,29.74,NW,307,0.0,0.0,98,0.00,,,0.00,VWS V14.01,2013-06-21 14:31:00,
2013-06-21 09:36:00,64.1,63.4,29.74,NW,308,0.0,0.0,98,0.00,,,0.00,VWS V14.01,2013-06-21 14:36:00,
2013-06-21 09:41:00,64.2,63.5,29.74,NW,323,0.0,0.0,98,0.00,,,0.00,VWS V14.01,2013-06-21 14:41:00,
2013-06-21 09:45:00,64.6,63.9,29.74,NW,323,0.0,0.0,98,0.00,,,0.00,VWS V14.01,2013-06-21 14:45:00,
2013-06-21 09:46:00,64.7,64.0,29.74,NW,323,0.0,0.0,98,0.00,,,0.00,VWS V14.01,2013-06-21 14:46:00,
2013-06-21 09:51:00,64.8,64.1,29.75,NW,323,0.0,0.0,98,0.00,,,0.00,VWS V14.01,2013-06-21 14:51:00,
2013-06-21 09:56:00,65.1,64.4,29.76,NW,323,0.0,0.0,98,0.00,,,0.00,VWS V14.01,2013-06-21 14:56:00,
2013-06-21 10:00:00,65.1,64.4,29.76,WSW,254,0.0,0.0,98,0.00,,,0.00,VWS V14.01,2013-06-21 15:00:00,
2013-06-21 10:01:00,65.1,64.4,29.76,WSW,254,0.0,0.0,98,0.00,,,0.00,VWS V14.01,2013-06-21 15:01:00,
2013-06-21 10:06:00,65.5,64.8,29.75,West,259,0.0,0.0,98,0.00,,,0.00,VWS V14.01,2013-06-21 15:06:00,
2013-06-21 10:11:00,65.9,65.2,29.74,North,5,0.0,0.0,98,0.00,,,0.00,VWS V14.01,2013-06-21 15:11:00,
2013-06-21 10:15:00,66.4,65.7,29.74,North,10,0.0,0.0,98,0.00,,,0.00,VWS V14.01,2013-06-21 15:15:00,
2013-06-21 10:16:00,66.5,65.8,29.74,North,10,0.0,0.0,98,0.00,,,0.00,VWS V14.01,2013-06-21 15:16:00,
2013-06-21 10:21:00,67.0,66.3,29.74,North,11,0.0,0.0,98,0.00,,,0.00,VWS V14.01,2013-06-21 15:21:00,
2013-06-21 10:26:00,67.3,66.6,29.74,NNW,333,0.0,0.0,98,0.00,,,0.00,VWS V14.01,2013-06-21 15:26:00,
2013-06-21 10:30:00,67.5,66.8,29.74,NNW,333,0.0,0.0,98,0.00,,,0.00,VWS V14.01,2013-06-21 15:30:00,
2013-06-21 10:31:00,67.5,66.8,29.74,NNE,21,0.0,0.0,98,0.00,,,0.00,VWS V14.01,2013-06-21 15:31:00,
2013-06-21 10:37:00,67.3,66.6,29.74,NE,36,0.0,0.0,98,0.00,,,0.00,VWS V14.01,2013-06-21 15:37:00,
2013-06-21 10:42:00,67.6,66.9,29.74,NE,36,0.0,0.0,98,0.00,,,0.00,VWS V14.01,2013-06-21 15:42:00,
2013-06-21 10:45:00,67.9,67.2,29.74,NNE,26,0.0,0.0,98,0.00,,,0.00,VWS V14.01,2013-06-21 15:45:00,
2013-06-21 10:47:00,67.9,67.2,29.74,NNE,26,0.0,0.0,98,0.00,,,0.00,VWS V14.01,2013-06-21 15:47:00,
2013-06-21 10:52:00,68.3,67.3,29.74,NNE,28,0.0,0.0,97,0.00,,,0.00,VWS V14.01,2013-06-21 15:52:00,
2013-06-21 10:57:00,68.6,67.6,29.74,North,355,0.0,0.0,97,0.00,,,0.00,VWS V14.01,2013-06-21 15:57:00,
2013-06-21 11:00:00,69.1,68.1,29.74,North,355,0.0,0.0,97,0.00,,,0.00,VWS V14.01,2013-06-21 16:00:00,
2013-06-21 11:02:00,69.3,68.3,29.74,North,360,0.0,0.0,97,0.00,,,0.00,VWS V14.01,2013-06-21 16:02:00,
2013-06-21 11:07:00,69.7,68.7,29.74,North,9,0.0,0.0,97,0.00,,,0.00,VWS V14.01,2013-06-21 16:07:00,
2013-06-21 11:12:00,70.1,68.8,29.74,North,355,0.0,0.0,96,0.00,,,0.00,VWS V14.01,2013-06-21 16:12:00,
2013-06-21 11:15:00,70.2,68.6,29.74,North,9,0.0,0.0,95,0.00,,,0.00,VWS V14.01,2013-06-21 16:15:00,
2013-06-21 11:17:00,70.2,68.6,29.75,North,9,0.0,0.0,95,0.00,,,0.00,VWS V14.01,2013-06-21 16:17:00,
2013-06-21 11:22:00,70.5,68.3,29.76,NNE,24,0.0,0.0,93,0.00,,,0.00,VWS V14.01,2013-06-21 16:22:00,
2013-06-21 11:27:00,70.7,68.2,29.76,NNW,340,0.0,0.0,92,0.00,,,0.00,VWS V14.01,2013-06-21 16:27:00,
2013-06-21 11:30:00,70.7,67.8,29.76,NW,309,0.0,0.0,91,0.00,,,0.00,VWS V14.01,2013-06-21 16:30:00,
2013-06-21 11:32:00,70.8,67.6,29.77,NNW,338,0.0,0.0,90,0.00,,,0.00,VWS V14.01,2013-06-21 16:32:00,
2013-06-21 11:37:00,71.0,67.5,29.77,NW,318,0.0,0.0,89,0.00,,,0.00,VWS V14.01,2013-06-21 16:37:00,
2013-06-21 11:42:00,71.3,67.8,29.77,NW,311,0.0,0.0,89,0.00,,,0.00,VWS V14.01,2013-06-21 16:42:00,
2013-06-21 11:45:00,71.5,67.7,29.77,NW,315,0.0,0.0,88,0.00,,,0.00,VWS V14.01,2013-06-21 16:45:00,
2013-06-21 11:47:00,71.6,67.8,29.77,NW,309,0.0,0.0,88,0.00,,,0.00,VWS V14.01,2013-06-21 16:47:00,
2013-06-21 11:52:00,71.5,67.0,29.78,NW,305,0.0,0.0,86,0.00,,,0.00,VWS V14.01,2013-06-21 16:52:00,
2013-06-21 11:57:00,71.3,65.4,29.79,NW,304,0.0,0.0,82,0.00,,,0.00,VWS V14.01,2013-06-21 16:57:00,
2013-06-21 12:00:00,71.4,65.2,29.78,NW,311,0.0,0.0,81,0.00,,,0.00,VWS V14.01,2013-06-21 17:00:00,
2013-06-21 12:02:00,71.5,65.3,29.78,WNW,303,0.0,0.0,81,0.00,,,0.00,VWS V14.01,2013-06-21 17:02:00,
2013-06-21 12:07:00,71.7,65.8,29.79,WNW,293,0.0,0.0,82,0.00,,,0.00,VWS V14.01,2013-06-21 17:07:00,
2013-06-21 12:12:00,71.6,65.0,29.79,NW,309,0.0,0.0,80,0.00,,,0.00,VWS V14.01,2013-06-21 17:12:00,
2013-06-21 12:15:00,71.7,65.5,29.79,WNW,285,0.0,0.0,81,0.00,,,0.00,VWS V14.01,2013-06-21 17:15:00,
2013-06-21 12:17:00,71.8,66.3,29.78,NNW,340,0.0,0.0,83,0.00,,,0.00,VWS V14.01,2013-06-21 17:17:00,
2013-06-21 12:22:00,71.7,66.2,29.78,NNW,329,0.0,0.0,83,0.00,,,0.00,VWS V14.01,2013-06-21 17:22:00,
2013-06-21 12:27:00,71.6,66.1,29.78,NNW,332,0.0,0.0,83,0.00,,,0.00,VWS V14.01,2013-06-21 17:27:00,
2013-06-21 12:30:00,71.5,66.0,29.78,NE,44,0.0,0.0,83,0.00,,,0.00,VWS V14.01,2013-06-21 17:30:00,
2013-06-21 12:32:00,71.4,65.9,29.79,WNW,287,0.0,0.0,83,0.00,,,0.00,VWS V14.01,2013-06-21 17:32:00,
2013-06-21 12:45:00,71.2,66.4,29.79,NW,314,0.0,0.0,85,0.00,,,0.00,VWS V14.01,2013-06-21 17:45:00,
2013-06-21 13:00:00,70.5,66.3,29.80,North,0,0.0,0.0,87,0.00,,,0.00,VWS V14.01,2013-06-21 18:00:00,
2013-06-21 13:15:00,69.9,65.1,29.80,North,0,0.0,0.0,85,0.00,,,0.00,VWS V14.01,2013-06-21 18:15:00,
2013-06-21 13:30:00,69.5,64.7,29.80,North,0,0.0,0.0,85,0.00,,,0.00,VWS V14.01,2013-06-21 18:30:00,
2013-06-21 13:45:00,68.5,64.4,29.77,North,0,0.0,0.0,87,0.00,,,0.00,VWS V14.01,2013-06-21 18:45:00,
2013-06-21 14:00:00,68.2,64.1,29.78,North,0,0.0,0.0,87,0.00,,,0.00,VWS V14.01,2013-06-21 19:00:00,
2013-06-21 14:15:00,68.5,64.7,29.77,North,0,0.0,0.0,88,0.00,,,0.00,VWS V14.01,2013-06-21 19:15:00,
2013-06-21 14:30:00,68.6,65.1,29.78,North,0,0.0,0.0,89,0.00,,,0.00,VWS V14.01,2013-06-21 19:30:00,
2013-06-21 14:45:00,69.1,65.6,29.78,North,0,0.0,0.0,89,0.00,,,0.00,VWS V14.01,2013-06-21 19:45:00,
2013-06-21 15:00:00,68.8,65.3,29.80,North,0,0.0,0.0,89,0.01,,,0.01,VWS V14.01,2013-06-21 20:00:00,
2013-06-21 15:15:00,68.2,65.1,29.78,North,0,0.0,0.0,90,0.01,,,0.01,VWS V14.01,2013-06-21 20:15:00,
2013-06-21 15:30:00,67.7,65.2,29.79,North,0,0.0,0.0,92,0.03,,,0.03,VWS V14.01,2013-06-21 20:30:00,
2013-06-21 15:45:00,67.4,64.9,29.79,North,0,0.0,0.0,92,0.04,,,0.04,VWS V14.01,2013-06-21 20:45:00,
2013-06-21 16:00:00,66.6,63.8,29.79,North,0,0.0,0.0,91,0.04,,,0.04,VWS V14.01,2013-06-21 21:00:00,
2013-06-21 16:15:00,67.3,64.2,29.78,North,0,0.0,0.0,90,0.03,,,0.04,VWS V14.01,2013-06-21 21:15:00,
2013-06-21 16:30:00,67.8,64.7,29.75,North,0,0.0,0.0,90,0.04,,,0.05,VWS V14.01,2013-06-21 21:30:00,
2013-06-21 16:45:00,67.4,64.9,29.79,North,0,0.0,0.0,92,0.04,,,0.04,VWS V14.01,2013-06-21 21:45:00,
2013-06-21 16:54:00,67.8,64.7,29.75,North,0,0.0,0.0,90,0.04,,,0.05,VWS V14.01,2013-06-21 21:54:00,
2013-06-21 16:59:00,68.8,66.0,29.73,North,355,0.0,0.0,91,0.02,,,0.05,VWS V14.01,2013-06-21 21:59:00,
2013-06-21 17:00:00,68.8,66.0,29.73,North,355,0.0,0.0,91,0.02,,,0.05,VWS V14.01,2013-06-21 22:00:00,
2013-06-21 17:04:00,68.9,66.1,29.73,NNE,20,0.0,0.0,91,0.01,,,0.05,VWS V14.01,2013-06-21 22:04:00,
2013-06-21 17:09:00,69.1,66.3,29.72,NNE,25,0.0,0.0,91,0.01,,,0.05,VWS V14.01,2013-06-21 22:09:00,
2013-06-21 17:14:00,69.3,66.8,29.72,NE,38,0.0,0.0,92,0.01,,,0.05,VWS V14.01,2013-06-21 22:14:00,
2013-06-21 17:15:00,69.2,66.4,29.72,NE,46,0.0,0.0,91,0.01,,,0.05,VWS V14.01,2013-06-21 22:15:00,
2013-06-21 17:19:00,69.3,66.5,29.73,NNE,31,0.0,0.0,91,0.01,,,0.05,VWS V14.01,2013-06-21 22:19:00,
2013-06-21 17:24:00,69.6,67.1,29.73,NNE,21,0.0,0.0,92,0.01,,,0.05,VWS V14.01,2013-06-21 22:24:00,
2013-06-21 17:29:00,69.7,66.9,29.73,NE,49,0.0,0.0,91,0.01,,,0.05,VWS V14.01,2013-06-21 22:29:00,
2013-06-21 17:30:00,69.7,66.9,29.73,NW,326,0.0,0.0,91,0.01,,,0.05,VWS V14.01,2013-06-21 22:30:00,
2013-06-21 17:34:00,69.8,67.0,29.73,North,5,0.0,0.0,91,0.00,,,0.05,VWS V14.01,2013-06-21 22:34:00,
2013-06-21 17:39:00,69.9,67.1,29.73,NNE,32,0.0,0.0,91,0.00,,,0.05,VWS V14.01,2013-06-21 22:39:00,
2013-06-21 17:44:00,70.0,67.2,29.73,NE,36,0.0,0.0,91,0.00,,,0.05,VWS V14.01,2013-06-21 22:44:00,
2013-06-21 17:45:00,69.9,66.7,29.74,ENE,59,0.0,0.0,90,0.00,,,0.05,VWS V14.01,2013-06-21 22:45:00,
2013-06-21 17:49:00,70.1,66.9,29.75,NE,39,0.0,0.0,90,0.00,,,0.05,VWS V14.01,2013-06-21 22:49:00,
2013-06-21 17:54:00,70.2,67.0,29.75,NE,45,0.0,0.0,90,0.00,,,0.05,VWS V14.01,2013-06-21 22:54:00,
2013-06-21 17:59:00,70.4,67.2,29.74,ENE,60,0.0,0.0,90,0.00,,,0.05,VWS V14.01,2013-06-21 22:59:00,
2013-06-21 18:00:00,70.4,66.9,29.74,NNE,23,0.0,0.0,89,0.00,,,0.05,VWS V14.01,2013-06-21 23:00:00,
2013-06-21 18:04:00,70.6,67.1,29.74,NE,55,0.0,0.0,89,0.00,,,0.05,VWS V14.01,2013-06-21 23:04:00,
2013-06-21 18:09:00,70.6,66.8,29.74,ENE,73,0.0,0.0,88,0.00,,,0.05,VWS V14.01,2013-06-21 23:09:00,
2013-06-21 18:14:00,70.6,66.4,29.73,ENE,69,0.0,0.0,87,0.00,,,0.05,VWS V14.01,2013-06-21 23:14:00,
2013-06-21 18:15:00,70.7,66.6,29.73,NE,56,0.0,0.0,87,0.00,,,0.05,VWS V14.01,2013-06-21 23:15:00,
2013-06-21 18:19:00,71.0,66.8,29.74,ENE,73,0.0,0.0,87,0.00,,,0.05,VWS V14.01,2013-06-21 23:19:00,
2013-06-21 18:24:00,71.1,66.9,29.73,NE,34,0.0,0.0,87,0.00,,,0.05,VWS V14.01,2013-06-21 23:24:00,
2013-06-21 18:29:00,71.1,66.9,29.74,East,92,0.0,0.0,87,0.00,,,0.05,VWS V14.01,2013-06-21 23:29:00,
2013-06-21 18:30:00,71.1,66.6,29.74,NE,50,0.0,0.0,86,0.00,,,0.05,VWS V14.01,2013-06-21 23:30:00,
2013-06-21 18:34:00,71.2,67.0,29.74,NE,53,0.0,0.0,87,0.00,,,0.05,VWS V14.01,2013-06-21 23:34:00,
2013-06-21 18:39:00,71.5,67.3,29.74,ENE,57,0.0,0.0,87,0.00,,,0.05,VWS V14.01,2013-06-21 23:39:00,
2013-06-21 18:44:00,71.6,66.8,29.73,NE,53,0.0,0.0,85,0.00,,,0.05,VWS V14.01,2013-06-21 23:44:00,
2013-06-21 18:45:00,71.7,66.8,29.73,NE,53,0.0,0.0,85,0.00,,,0.05,VWS V14.01,2013-06-21 23:45:00,
2013-06-21 18:49:00,71.8,67.3,29.73,ENE,59,0.0,0.0,86,0.00,,,0.05,VWS V14.01,2013-06-21 23:49:00,
2013-06-21 18:54:00,72.0,67.2,29.74,East,84,0.0,0.0,85,0.00,,,0.05,VWS V14.01,2013-06-21 23:54:00,
2013-06-21 18:59:00,72.0,66.8,29.74,ENE,67,0.0,0.0,84,0.00,,,0.05,VWS V14.01,2013-06-21 23:59:00,
2013-06-21 19:00:00,71.9,66.4,29.74,NE,49,0.0,0.0,83,0.00,,,0.05,VWS V14.01,2013-06-22 00:00:00,
2013-06-21 19:04:00,71.9,66.7,29.73,East,80,0.0,0.0,84,0.00,,,0.05,VWS V14.01,2013-06-22 00:04:00,
2013-06-21 19:09:00,71.9,66.7,29.74,NNE,26,0.0,0.0,84,0.00,,,0.05,VWS V14.01,2013-06-22 00:09:00,
2013-06-21 19:14:00,71.8,66.6,29.73,NNE,27,0.0,0.0,84,0.00,,,0.05,VWS V14.01,2013-06-22 00:14:00,
2013-06-21 19:15:00,71.7,66.5,29.73,NE,42,0.0,0.0,84,0.00,,,0.05,VWS V14.01,2013-06-22 00:15:00,
2013-06-21 19:19:00,71.8,66.6,29.74,ENE,63,0.0,0.0,84,0.00,,,0.05,VWS V14.01,2013-06-22 00:19:00,
2013-06-21 19:24:00,71.7,66.2,29.73,NE,36,0.0,0.0,83,0.00,,,0.05,VWS V14.01,2013-06-22 00:24:00,
2013-06-21 19:29:00,71.5,66.3,29.73,NE,43,0.0,0.0,84,0.00,,,0.05,VWS V14.01,2013-06-22 00:29:00,
2013-06-21 19:30:00,71.5,66.3,29.73,NNE,26,0.0,0.0,84,0.00,,,0.05,VWS V14.01,2013-06-22 00:30:00,
2013-06-21 19:34:00,71.3,66.1,29.73,ENE,59,0.0,0.0,84,0.00,,,0.05,VWS V14.01,2013-06-22 00:34:00,
2013-06-21 19:39:00,71.2,66.0,29.73,ENE,65,0.0,0.0,84,0.00,,,0.05,VWS V14.01,2013-06-22 00:39:00,
2013-06-21 19:44:00,71.1,65.9,29.73,NNE,30,0.0,0.0,84,0.00,,,0.05,VWS V14.01,2013-06-22 00:44:00,
2013-06-21 19:45:00,71.1,65.9,29.73,NE,37,0.0,0.0,84,0.00,,,0.05,VWS V14.01,2013-06-22 00:45:00,
2013-06-21 19:49:00,71.0,65.8,29.74,NE,40,0.0,0.0,84,0.00,,,0.05,VWS V14.01,2013-06-22 00:49:00,
2013-06-21 19:54:00,71.0,66.2,29.73,NE,37,0.0,0.0,85,0.00,,,0.05,VWS V14.01,2013-06-22 00:54:00,
2013-06-21 19:59:00,70.8,66.0,29.74,NE,38,0.0,0.0,85,0.00,,,0.05,VWS V14.01,2013-06-22 00:59:00,
2013-06-21 20:00:00,70.8,66.0,29.74,NNE,19,0.0,0.0,85,0.00,,,0.05,VWS V14.01,2013-06-22 01:00:00,
2013-06-21 20:04:00,70.9,66.4,29.74,NNE,26,0.0,0.0,86,0.00,,,0.05,VWS V14.01,2013-06-22 01:04:00,
2013-06-21 20:09:00,70.8,66.3,29.73,NNE,26,0.0,0.0,86,0.00,,,0.05,VWS V14.01,2013-06-22 01:09:00,
2013-06-21 20:14:00,70.9,66.4,29.73,NE,51,0.0,0.0,86,0.00,,,0.05,VWS V14.01,2013-06-22 01:14:00,
2013-06-21 20:15:00,70.8,66.3,29.73,NNE,30,0.0,0.0,86,0.00,,,0.05,VWS V14.01,2013-06-22 01:15:00,
2013-06-21 20:19:00,70.7,66.2,29.73,SW,224,0.0,0.0,86,0.00,,,0.05,VWS V14.01,2013-06-22 01:19:00,
2013-06-21 20:24:00,70.6,66.1,29.73,SW,224,0.0,0.0,86,0.00,,,0.05,VWS V14.01,2013-06-22 01:24:00,
2013-06-21 20:29:00,70.5,66.0,29.73,SW,224,0.0,0.0,86,0.00,,,0.05,VWS V14.01,2013-06-22 01:29:00,
2013-06-21 20:30:00,70.5,66.0,29.73,SW,224,0.0,0.0,86,0.00,,,0.05,VWS V14.01,2013-06-22 01:30:00,
2013-06-21 20:34:00,70.5,66.3,29.72,SW,224,0.0,0.0,87,0.00,,,0.05,VWS V14.01,2013-06-22 01:34:00,
2013-06-21 20:39:00,70.5,66.3,29.72,SW,224,0.0,0.0,87,0.00,,,0.05,VWS V14.01,2013-06-22 01:39:00,
2013-06-21 20:44:00,70.5,66.3,29.72,NNW,341,2.0,6.0,87,0.00,,,0.05,VWS V14.01,2013-06-22 01:44:00,
2013-06-21 20:45:00,70.5,66.3,29.72,NW,307,1.0,6.0,87,0.00,,,0.05,VWS V14.01,2013-06-22 01:45:00,
2013-06-21 20:49:00,70.5,66.3,29.72,NW,324,2.0,4.0,87,0.00,,,0.05,VWS V14.01,2013-06-22 01:49:00,
2013-06-21 20:54:00,70.3,66.2,29.72,NW,315,1.0,5.0,87,0.00,,,0.05,VWS V14.01,2013-06-22 01:54:00,
2013-06-21 20:59:00,70.2,66.1,29.72,NW,315,3.0,5.0,87,0.00,,,0.05,VWS V14.01,2013-06-22 01:59:00,
2013-06-21 21:00:00,70.1,66.0,29.72,NW,315,2.0,5.0,87,0.00,,,0.05,VWS V14.01,2013-06-22 02:00:00,
2013-06-21 21:04:00,70.1,66.0,29.72,WNW,294,1.0,4.0,87,0.00,,,0.05,VWS V14.01,2013-06-22 02:04:00,
2013-06-21 21:09:00,69.9,66.1,29.73,WNW,302,2.0,5.0,88,0.00,,,0.05,VWS V14.01,2013-06-22 02:09:00,
2013-06-21 21:14:00,69.9,66.1,29.73,NW,322,2.0,5.0,88,0.00,,,0.05,VWS V14.01,2013-06-22 02:14:00,
2013-06-21 21:15:00,69.9,66.1,29.73,WNW,297,2.0,5.0,88,0.00,,,0.05,VWS V14.01,2013-06-22 02:15:00,
2013-06-21 21:19:00,69.8,66.0,29.73,NW,304,1.0,4.0,88,0.00,,,0.05,VWS V14.01,2013-06-22 02:19:00,
2013-06-21 21:24:00,69.6,66.1,29.73,NNW,336,2.0,4.0,89,0.00,,,0.05,VWS V14.01,2013-06-22 02:24:00,
2013-06-21 21:29:00,69.5,66.0,29.73,NW,308,2.0,4.0,89,0.00,,,0.05,VWS V14.01,2013-06-22 02:29:00,
2013-06-21 21:30:00,69.4,65.9,29.73,NNW,327,3.0,4.0,89,0.00,,,0.05,VWS V14.01,2013-06-22 02:30:00,
2013-06-21 21:34:00,69.3,65.8,29.73,WNW,302,2.0,3.0,89,0.00,,,0.05,VWS V14.01,2013-06-22 02:34:00,
2013-06-21 21:39:00,69.1,65.6,29.72,NW,305,3.0,4.0,89,0.00,,,0.05,VWS V14.01,2013-06-22 02:39:00,
2013-06-21 21:44:00,69.0,65.8,29.72,NW,322,2.0,4.0,90,0.00,,,0.05,VWS V14.01,2013-06-22 02:44:00,
2013-06-21 21:45:00,68.9,65.8,29.72,NW,305,1.0,4.0,90,0.00,,,0.05,VWS V14.01,2013-06-22 02:45:00,
2013-06-21 21:49:00,68.8,65.7,29.72,NNW,331,1.0,3.0,90,0.00,,,0.05,VWS V14.01,2013-06-22 02:49:00,
2013-06-21 21:54:00,68.6,65.5,29.72,NW,311,0.0,5.0,90,0.00,,,0.05,VWS V14.01,2013-06-22 02:54:00,
2013-06-21 21:59:00,68.5,65.4,29.72,NW,304,1.0,5.0,90,0.00,,,0.05,VWS V14.01,2013-06-22 02:59:00,
2013-06-21 22:00:00,68.5,65.4,29.72,NW,304,1.0,5.0,90,0.00,,,0.05,VWS V14.01,2013-06-22 03:00:00,
2013-06-21 22:04:00,68.3,65.2,29.72,NW,311,0.0,3.0,90,0.00,,,0.05,VWS V14.01,2013-06-22 03:04:00,
2013-06-21 22:09:00,68.1,65.3,29.72,NW,309,1.0,3.0,91,0.00,,,0.05,VWS V14.01,2013-06-22 03:09:00,
2013-06-21 22:14:00,68.0,65.2,29.72,NW,313,1.0,3.0,91,0.00,,,0.05,VWS V14.01,2013-06-22 03:14:00,
2013-06-21 22:15:00,68.0,65.2,29.72,NW,313,1.0,3.0,91,0.00,,,0.05,VWS V14.01,2013-06-22 03:15:00,
2013-06-21 22:19:00,67.9,65.1,29.72,NW,310,1.0,3.0,91,0.00,,,0.05,VWS V14.01,2013-06-22 03:19:00,
2013-06-21 22:24:00,67.8,65.3,29.72,NNW,333,1.0,3.0,92,0.00,,,0.05,VWS V14.01,2013-06-22 03:24:00,
2013-06-21 22:29:00,67.8,65.3,29.72,NW,322,2.0,3.0,92,0.00,,,0.05,VWS V14.01,2013-06-22 03:29:00,
2013-06-21 22:30:00,67.8,65.3,29.73,NW,321,5.0,5.0,92,0.00,,,0.05,VWS V14.01,2013-06-22 03:30:00,
2013-06-21 22:34:00,67.7,65.2,29.73,NNW,331,1.0,5.0,92,0.00,,,0.05,VWS V14.01,2013-06-22 03:34:00,
2013-06-21 22:39:00,67.7,65.2,29.73,NNW,331,2.0,5.0,92,0.00,,,0.05,VWS V14.01,2013-06-22 03:39:00,
2013-06-21 22:44:00,67.7,65.2,29.73,NNW,329,2.0,5.0,92,0.00,,,0.05,VWS V14.01,2013-06-22 03:44:00,
2013-06-21 22:45:00,67.7,65.2,29.73,NNW,329,1.0,5.0,92,0.00,,,0.05,VWS V14.01,2013-06-22 03:45:00,
2013-06-21 22:49:00,67.6,65.1,29.74,NNW,329,0.0,3.0,92,0.00,,,0.05,VWS V14.01,2013-06-22 03:49:00,
2013-06-21 22:54:00,67.5,65.0,29.73,NNW,346,1.0,3.0,92,0.00,,,0.05,VWS V14.01,2013-06-22 03:54:00,
2013-06-21 22:59:00,67.5,65.3,29.74,NNW,329,0.0,3.0,93,0.00,,,0.05,VWS V14.01,2013-06-22 03:59:00,
2013-06-21 23:00:00,67.5,65.0,29.74,NNW,337,0.0,3.0,92,0.00,,,0.05,VWS V14.01,2013-06-22 04:00:00,
2013-06-21 23:15:00,67.3,65.1,29.73,NNW,338,1.0,3.0,93,0.00,,,0.05,VWS V14.01,2013-06-22 04:15:00,
2013-06-21 23:30:00,67.1,64.9,29.74,North,0,1.0,2.0,93,0.00,,,0.05,VWS V14.01,2013-06-22 04:30:00,
2013-06-21 23:45:00,67.0,64.8,29.74,NW,315,0.0,2.0,93,0.00,,,0.05,VWS V14.01,2013-06-22 04:45:00,